sensor_id;sensor_type;location;lat;lon;timestamp;P1;durP1;ratioP1;P2;durP2;ratioP2
44578;SDS011;37422;51.402;0.016;2022-12-20T00:01:49;13.32;;;3.42;;
44578;SDS011;37422;51.402;0.016;2022-12-20T00:04:17;19.52;;;4.65;;
44578;SDS011;37422;51.402;0.016;2022-12-20T00:06:44;13.70;;;3.85;;
44578;SDS011;37422;51.402;0.016;2022-12-20T00:09:12;10.07;;;3.20;;
44578;SDS011;37422;51.402;0.016;2022-12-20T00:11:40;17.00;;;4.90;;
44578;SDS011;37422;51.402;0.016;2022-12-20T00:14:08;15.93;;;3.38;;
44578;SDS011;37422;51.402;0.016;2022-12-20T00:16:36;15.20;;;4.53;;
44578;SDS011;37422;51.402;0.016;2022-12-20T00:19:05;14.13;;;3.42;;
44578;SDS011;37422;51.402;0.016;2022-12-20T00:21:33;21.08;;;3.80;;
44578;SDS011;37422;51.402;0.016;2022-12-20T00:24:02;14.80;;;3.67;;
44578;SDS011;37422;51.402;0.016;2022-12-20T00:26:32;20.90;;;4.38;;
44578;SDS011;37422;51.402;0.016;2022-12-20T00:29:01;16.40;;;5.53;;
44578;SDS011;37422;51.402;0.016;2022-12-20T00:31:30;21.08;;;3.40;;
44578;SDS011;37422;51.402;0.016;2022-12-20T00:33:58;14.48;;;3.35;;
44578;SDS011;37422;51.402;0.016;2022-12-20T00:36:28;17.25;;;4.13;;
44578;SDS011;37422;51.402;0.016;2022-12-20T00:38:58;19.73;;;3.42;;
44578;SDS011;37422;51.402;0.016;2022-12-20T00:41:28;16.90;;;3.45;;
44578;SDS011;37422;51.402;0.016;2022-12-20T00:43:58;11.30;;;2.20;;
44578;SDS011;37422;51.402;0.016;2022-12-20T00:46:26;11.13;;;2.65;;
44578;SDS011;37422;51.402;0.016;2022-12-20T00:48:54;11.77;;;2.60;;
44578;SDS011;37422;51.402;0.016;2022-12-20T00:51:23;10.60;;;2.83;;
44578;SDS011;37422;51.402;0.016;2022-12-20T00:53:53;16.23;;;2.90;;
44578;SDS011;37422;51.402;0.016;2022-12-20T00:56:21;8.40;;;2.20;;
44578;SDS011;37422;51.402;0.016;2022-12-20T00:58:51;10.88;;;3.53;;
44578;SDS011;37422;51.402;0.016;2022-12-20T01:01:22;11.43;;;3.08;;
44578;SDS011;37422;51.402;0.016;2022-12-20T01:03:52;8.98;;;2.20;;
44578;SDS011;37422;51.402;0.016;2022-12-20T01:06:21;9.80;;;3.00;;
44578;SDS011;37422;51.402;0.016;2022-12-20T01:08:51;8.15;;;2.33;;
44578;SDS011;37422;51.402;0.016;2022-12-20T01:11:21;12.25;;;2.97;;
44578;SDS011;37422;51.402;0.016;2022-12-20T01:13:54;21.42;;;3.75;;
44578;SDS011;37422;51.402;0.016;2022-12-20T01:18:54;16.27;;;3.05;;
44578;SDS011;37422;51.402;0.016;2022-12-20T01:21:23;10.80;;;3.08;;
44578;SDS011;37422;51.402;0.016;2022-12-20T01:23:53;18.23;;;3.60;;
44578;SDS011;37422;51.402;0.016;2022-12-20T01:26:23;11.98;;;3.45;;
44578;SDS011;37422;51.402;0.016;2022-12-20T01:28:53;23.23;;;3.78;;
44578;SDS011;37422;51.402;0.016;2022-12-20T01:31:23;21.20;;;4.60;;
44578;SDS011;37422;51.402;0.016;2022-12-20T01:33:51;14.90;;;3.70;;
44578;SDS011;37422;51.402;0.016;2022-12-20T01:36:20;19.73;;;3.58;;
44578;SDS011;37422;51.402;0.016;2022-12-20T01:38:56;16.92;;;3.70;;
44578;SDS011;37422;51.402;0.016;2022-12-20T01:41:24;9.75;;;2.38;;
44578;SDS011;37422;51.402;0.016;2022-12-20T01:46:24;15.77;;;3.78;;
44578;SDS011;37422;51.402;0.016;2022-12-20T01:48:55;12.43;;;3.58;;
44578;SDS011;37422;51.402;0.016;2022-12-20T01:51:33;19.85;;;3.85;;
44578;SDS011;37422;51.402;0.016;2022-12-20T01:54:13;18.65;;;4.07;;
44578;SDS011;37422;51.402;0.016;2022-12-20T01:56:46;18.65;;;3.63;;
44578;SDS011;37422;51.402;0.016;2022-12-20T01:59:21;21.02;;;4.25;;
44578;SDS011;37422;51.402;0.016;2022-12-20T02:04:18;15.18;;;4.20;;
44578;SDS011;37422;51.402;0.016;2022-12-20T02:06:48;14.98;;;3.38;;
44578;SDS011;37422;51.402;0.016;2022-12-20T02:09:16;18.15;;;3.90;;
44578;SDS011;37422;51.402;0.016;2022-12-20T02:11:45;15.23;;;3.50;;
44578;SDS011;37422;51.402;0.016;2022-12-20T02:17:34;15.45;;;4.88;;
44578;SDS011;37422;51.402;0.016;2022-12-20T02:20:18;19.40;;;4.57;;
44578;SDS011;37422;51.402;0.016;2022-12-20T02:34:29;9.50;;;3.38;;
44578;SDS011;37422;51.402;0.016;2022-12-20T02:37:01;10.77;;;2.78;;
44578;SDS011;37422;51.402;0.016;2022-12-20T02:39:32;13.63;;;3.25;;
44578;SDS011;37422;51.402;0.016;2022-12-20T02:42:06;9.32;;;2.55;;
44578;SDS011;37422;51.402;0.016;2022-12-20T02:47:48;12.15;;;2.70;;
44578;SDS011;37422;51.402;0.016;2022-12-20T02:50:37;11.27;;;2.88;;
44578;SDS011;37422;51.402;0.016;2022-12-20T02:53:11;5.38;;;2.60;;
44578;SDS011;37422;51.402;0.016;2022-12-20T02:55:54;8.20;;;1.90;;
44578;SDS011;37422;51.402;0.016;2022-12-20T02:58:32;9.77;;;2.95;;
44578;SDS011;37422;51.402;0.016;2022-12-20T03:01:22;9.57;;;2.90;;
44578;SDS011;37422;51.402;0.016;2022-12-20T03:03:57;15.30;;;3.63;;
44578;SDS011;37422;51.402;0.016;2022-12-20T03:06:26;11.27;;;4.43;;
44578;SDS011;37422;51.402;0.016;2022-12-20T03:08:54;16.67;;;4.88;;
44578;SDS011;37422;51.402;0.016;2022-12-20T03:11:26;14.77;;;4.13;;
44578;SDS011;37422;51.402;0.016;2022-12-20T03:13:57;12.15;;;3.30;;
44578;SDS011;37422;51.402;0.016;2022-12-20T03:16:25;14.10;;;3.60;;
44578;SDS011;37422;51.402;0.016;2022-12-20T03:18:53;18.17;;;3.88;;
44578;SDS011;37422;51.402;0.016;2022-12-20T03:21:20;18.17;;;3.92;;
44578;SDS011;37422;51.402;0.016;2022-12-20T03:23:48;10.80;;;3.53;;
44578;SDS011;37422;51.402;0.016;2022-12-20T03:26:16;18.75;;;4.50;;
44578;SDS011;37422;51.402;0.016;2022-12-20T03:28:50;17.38;;;4.25;;
44578;SDS011;37422;51.402;0.016;2022-12-20T03:31:20;13.75;;;3.63;;
44578;SDS011;37422;51.402;0.016;2022-12-20T03:33:52;19.00;;;4.93;;
44578;SDS011;37422;51.402;0.016;2022-12-20T03:36:21;13.20;;;3.67;;
44578;SDS011;37422;51.402;0.016;2022-12-20T03:38:57;25.75;;;4.82;;
44578;SDS011;37422;51.402;0.016;2022-12-20T03:41:29;14.60;;;4.60;;
44578;SDS011;37422;51.402;0.016;2022-12-20T03:43:59;16.77;;;4.53;;
44578;SDS011;37422;51.402;0.016;2022-12-20T03:46:28;11.50;;;4.32;;
44578;SDS011;37422;51.402;0.016;2022-12-20T03:48:59;13.77;;;4.30;;
44578;SDS011;37422;51.402;0.016;2022-12-20T03:51:31;16.55;;;4.18;;
44578;SDS011;37422;51.402;0.016;2022-12-20T03:54:02;19.08;;;4.05;;
44578;SDS011;37422;51.402;0.016;2022-12-20T03:56:54;14.57;;;3.78;;
44578;SDS011;37422;51.402;0.016;2022-12-20T03:59:23;15.63;;;3.95;;
44578;SDS011;37422;51.402;0.016;2022-12-20T04:01:52;25.13;;;4.82;;
44578;SDS011;37422;51.402;0.016;2022-12-20T04:04:28;19.80;;;4.32;;
44578;SDS011;37422;51.402;0.016;2022-12-20T04:06:59;17.13;;;3.90;;
44578;SDS011;37422;51.402;0.016;2022-12-20T04:09:27;19.08;;;6.03;;
44578;SDS011;37422;51.402;0.016;2022-12-20T04:12:15;14.90;;;3.67;;
44578;SDS011;37422;51.402;0.016;2022-12-20T04:14:53;21.65;;;4.35;;
44578;SDS011;37422;51.402;0.016;2022-12-20T04:17:24;18.35;;;3.67;;
44578;SDS011;37422;51.402;0.016;2022-12-20T04:19:53;26.15;;;6.82;;
44578;SDS011;37422;51.402;0.016;2022-12-20T04:22:21;19.15;;;4.68;;
44578;SDS011;37422;51.402;0.016;2022-12-20T04:24:58;21.30;;;4.93;;
44578;SDS011;37422;51.402;0.016;2022-12-20T04:27:32;24.05;;;6.25;;
44578;SDS011;37422;51.402;0.016;2022-12-20T04:30:04;16.23;;;4.95;;
44578;SDS011;37422;51.402;0.016;2022-12-20T04:32:35;13.55;;;5.30;;
44578;SDS011;37422;51.402;0.016;2022-12-20T04:35:03;23.08;;;5.53;;
44578;SDS011;37422;51.402;0.016;2022-12-20T04:37:37;18.55;;;6.57;;
44578;SDS011;37422;51.402;0.016;2022-12-20T04:40:05;17.08;;;4.28;;
44578;SDS011;37422;51.402;0.016;2022-12-20T04:42:45;12.65;;;4.85;;
44578;SDS011;37422;51.402;0.016;2022-12-20T04:45:14;13.27;;;3.50;;
44578;SDS011;37422;51.402;0.016;2022-12-20T04:47:43;18.15;;;4.70;;
44578;SDS011;37422;51.402;0.016;2022-12-20T04:50:15;19.80;;;6.03;;
44578;SDS011;37422;51.402;0.016;2022-12-20T04:52:45;17.40;;;6.20;;
44578;SDS011;37422;51.402;0.016;2022-12-20T04:55:36;18.63;;;4.72;;
44578;SDS011;37422;51.402;0.016;2022-12-20T04:58:06;16.40;;;5.15;;
44578;SDS011;37422;51.402;0.016;2022-12-20T05:00:37;15.02;;;4.90;;
44578;SDS011;37422;51.402;0.016;2022-12-20T05:03:18;16.73;;;4.55;;
44578;SDS011;37422;51.402;0.016;2022-12-20T05:05:46;25.75;;;5.95;;
44578;SDS011;37422;51.402;0.016;2022-12-20T05:08:15;25.60;;;6.15;;
44578;SDS011;37422;51.402;0.016;2022-12-20T05:10:43;14.27;;;5.05;;
44578;SDS011;37422;51.402;0.016;2022-12-20T05:13:12;18.17;;;5.75;;
44578;SDS011;37422;51.402;0.016;2022-12-20T05:15:43;10.35;;;4.10;;
44578;SDS011;37422;51.402;0.016;2022-12-20T05:18:11;18.42;;;5.45;;
44578;SDS011;37422;51.402;0.016;2022-12-20T05:20:48;22.95;;;5.57;;
44578;SDS011;37422;51.402;0.016;2022-12-20T05:23:36;20.55;;;5.32;;
44578;SDS011;37422;51.402;0.016;2022-12-20T05:26:25;14.10;;;4.38;;
44578;SDS011;37422;51.402;0.016;2022-12-20T05:28:56;14.20;;;4.30;;
44578;SDS011;37422;51.402;0.016;2022-12-20T05:31:27;15.23;;;4.45;;
44578;SDS011;37422;51.402;0.016;2022-12-20T05:33:56;22.20;;;5.13;;
44578;SDS011;37422;51.402;0.016;2022-12-20T05:36:28;21.10;;;5.50;;
44578;SDS011;37422;51.402;0.016;2022-12-20T05:38:58;18.58;;;4.82;;
44578;SDS011;37422;51.402;0.016;2022-12-20T05:41:32;12.85;;;5.13;;
44578;SDS011;37422;51.402;0.016;2022-12-20T05:44:01;16.27;;;4.53;;
44578;SDS011;37422;51.402;0.016;2022-12-20T05:46:32;20.45;;;5.93;;
44578;SDS011;37422;51.402;0.016;2022-12-20T05:49:04;18.05;;;5.07;;
44578;SDS011;37422;51.402;0.016;2022-12-20T05:51:32;17.55;;;4.63;;
44578;SDS011;37422;51.402;0.016;2022-12-20T05:54:15;14.77;;;4.25;;
44578;SDS011;37422;51.402;0.016;2022-12-20T05:56:52;15.75;;;4.57;;
44578;SDS011;37422;51.402;0.016;2022-12-20T05:59:26;15.27;;;4.80;;
44578;SDS011;37422;51.402;0.016;2022-12-20T06:01:54;22.35;;;5.60;;
44578;SDS011;37422;51.402;0.016;2022-12-20T06:04:23;16.73;;;3.85;;
44578;SDS011;37422;51.402;0.016;2022-12-20T06:06:51;12.30;;;3.65;;
44578;SDS011;37422;51.402;0.016;2022-12-20T06:09:19;16.77;;;4.53;;
44578;SDS011;37422;51.402;0.016;2022-12-20T06:12:03;22.60;;;4.68;;
44578;SDS011;37422;51.402;0.016;2022-12-20T06:14:32;13.77;;;3.30;;
44578;SDS011;37422;51.402;0.016;2022-12-20T06:17:01;19.92;;;5.82;;
44578;SDS011;37422;51.402;0.016;2022-12-20T06:19:30;22.27;;;5.17;;
44578;SDS011;37422;51.402;0.016;2022-12-20T06:21:59;19.23;;;5.75;;
44578;SDS011;37422;51.402;0.016;2022-12-20T06:24:47;19.23;;;4.80;;
44578;SDS011;37422;51.402;0.016;2022-12-20T06:27:19;19.17;;;4.63;;
44578;SDS011;37422;51.402;0.016;2022-12-20T06:29:56;20.80;;;5.57;;
44578;SDS011;37422;51.402;0.016;2022-12-20T06:32:36;28.02;;;6.10;;
44578;SDS011;37422;51.402;0.016;2022-12-20T06:35:16;17.63;;;4.32;;
44578;SDS011;37422;51.402;0.016;2022-12-20T06:37:48;16.77;;;4.40;;
44578;SDS011;37422;51.402;0.016;2022-12-20T06:40:35;21.83;;;5.30;;
44578;SDS011;37422;51.402;0.016;2022-12-20T06:43:27;17.70;;;4.88;;
44578;SDS011;37422;51.402;0.016;2022-12-20T06:48:42;21.67;;;5.93;;
44578;SDS011;37422;51.402;0.016;2022-12-20T06:51:36;21.95;;;4.82;;
44578;SDS011;37422;51.402;0.016;2022-12-20T06:54:49;19.15;;;4.13;;
44578;SDS011;37422;51.402;0.016;2022-12-20T06:57:31;14.57;;;3.45;;
44578;SDS011;37422;51.402;0.016;2022-12-20T07:00:07;16.60;;;3.67;;
44578;SDS011;37422;51.402;0.016;2022-12-20T07:02:58;17.70;;;4.60;;
44578;SDS011;37422;51.402;0.016;2022-12-20T07:05:58;25.90;;;6.20;;
44578;SDS011;37422;51.402;0.016;2022-12-20T07:08:42;18.95;;;4.22;;
44578;SDS011;37422;51.402;0.016;2022-12-20T07:11:10;20.77;;;4.18;;
44578;SDS011;37422;51.402;0.016;2022-12-20T07:13:38;22.38;;;5.47;;
44578;SDS011;37422;51.402;0.016;2022-12-20T07:16:09;10.73;;;2.40;;
44578;SDS011;37422;51.402;0.016;2022-12-20T07:18:41;1.58;;;1.10;;
44578;SDS011;37422;51.402;0.016;2022-12-20T07:21:12;2.70;;;0.75;;
44578;SDS011;37422;51.402;0.016;2022-12-20T07:24:10;1.48;;;0.80;;
44578;SDS011;37422;51.402;0.016;2022-12-20T07:27:12;1.25;;;0.60;;
44578;SDS011;37422;51.402;0.016;2022-12-20T07:29:47;0.47;;;0.47;;
44578;SDS011;37422;51.402;0.016;2022-12-20T07:32:25;0.95;;;0.70;;
44578;SDS011;37422;51.402;0.016;2022-12-20T07:35:34;4.00;;;1.10;;
44578;SDS011;37422;51.402;0.016;2022-12-20T07:38:20;2.67;;;1.20;;
44578;SDS011;37422;51.402;0.016;2022-12-20T07:41:20;1.75;;;1.10;;
44578;SDS011;37422;51.402;0.016;2022-12-20T07:44:16;1.67;;;0.80;;
44578;SDS011;37422;51.402;0.016;2022-12-20T07:46:51;1.20;;;0.90;;
44578;SDS011;37422;51.402;0.016;2022-12-20T07:49:28;3.42;;;0.93;;
44578;SDS011;37422;51.402;0.016;2022-12-20T07:52:06;3.25;;;1.05;;
44578;SDS011;37422;51.402;0.016;2022-12-20T07:55:52;5.75;;;1.80;;
44578;SDS011;37422;51.402;0.016;2022-12-20T07:58:40;1.83;;;1.33;;
44578;SDS011;37422;51.402;0.016;2022-12-20T08:02:04;3.50;;;1.38;;
44578;SDS011;37422;51.402;0.016;2022-12-20T08:04:34;2.58;;;1.02;;
44578;SDS011;37422;51.402;0.016;2022-12-20T08:07:03;3.33;;;1.20;;
44578;SDS011;37422;51.402;0.016;2022-12-20T08:09:39;3.13;;;0.77;;
44578;SDS011;37422;51.402;0.016;2022-12-20T08:13:35;1.63;;;0.73;;
44578;SDS011;37422;51.402;0.016;2022-12-20T08:17:41;1.90;;;0.70;;
44578;SDS011;37422;51.402;0.016;2022-12-20T08:20:11;2.67;;;0.90;;
44578;SDS011;37422;51.402;0.016;2022-12-20T08:22:41;3.03;;;1.00;;
44578;SDS011;37422;51.402;0.016;2022-12-20T08:25:09;2.58;;;1.00;;
44578;SDS011;37422;51.402;0.016;2022-12-20T08:27:43;1.30;;;0.63;;
44578;SDS011;37422;51.402;0.016;2022-12-20T08:30:19;0.73;;;0.63;;
44578;SDS011;37422;51.402;0.016;2022-12-20T08:32:49;1.00;;;0.52;;
44578;SDS011;37422;51.402;0.016;2022-12-20T08:35:17;0.70;;;0.70;;
44578;SDS011;37422;51.402;0.016;2022-12-20T08:37:46;1.38;;;0.80;;
44578;SDS011;37422;51.402;0.016;2022-12-20T08:41:51;0.95;;;0.65;;
44578;SDS011;37422;51.402;0.016;2022-12-20T08:45:50;5.40;;;0.73;;
44578;SDS011;37422;51.402;0.016;2022-12-20T08:50:16;1.08;;;0.80;;
44578;SDS011;37422;51.402;0.016;2022-12-20T08:52:47;3.20;;;0.85;;
44578;SDS011;37422;51.402;0.016;2022-12-20T08:55:27;1.33;;;0.90;;
44578;SDS011;37422;51.402;0.016;2022-12-20T08:58:01;2.50;;;0.90;;
44578;SDS011;37422;51.402;0.016;2022-12-20T09:00:37;5.90;;;2.40;;
44578;SDS011;37422;51.402;0.016;2022-12-20T09:03:13;2.25;;;0.90;;
44578;SDS011;37422;51.402;0.016;2022-12-20T09:06:35;3.42;;;1.42;;
44578;SDS011;37422;51.402;0.016;2022-12-20T09:09:22;10.65;;;3.30;;
44578;SDS011;37422;51.402;0.016;2022-12-20T09:20:06;4.90;;;0.85;;
44578;SDS011;37422;51.402;0.016;2022-12-20T09:22:35;5.95;;;1.17;;
44578;SDS011;37422;51.402;0.016;2022-12-20T09:29:30;9.20;;;1.42;;
44578;SDS011;37422;51.402;0.016;2022-12-20T09:32:33;6.22;;;1.42;;
44578;SDS011;37422;51.402;0.016;2022-12-20T09:35:05;10.90;;;1.63;;
44578;SDS011;37422;51.402;0.016;2022-12-20T09:38:07;11.45;;;2.28;;
44578;SDS011;37422;51.402;0.016;2022-12-20T09:41:34;10.98;;;1.48;;
44578;SDS011;37422;51.402;0.016;2022-12-20T09:44:25;12.07;;;1.67;;
44578;SDS011;37422;51.402;0.016;2022-12-20T09:59:40;7.57;;;1.48;;
44578;SDS011;37422;51.402;0.016;2022-12-20T10:02:37;3.40;;;1.00;;
44578;SDS011;37422;51.402;0.016;2022-12-20T10:05:44;7.22;;;2.25;;
44578;SDS011;37422;51.402;0.016;2022-12-20T10:08:43;7.40;;;1.00;;
44578;SDS011;37422;51.402;0.016;2022-12-20T10:26:38;5.07;;;1.60;;
44578;SDS011;37422;51.402;0.016;2022-12-20T10:29:21;10.95;;;2.80;;
44578;SDS011;37422;51.402;0.016;2022-12-20T10:31:53;10.75;;;1.73;;
44578;SDS011;37422;51.402;0.016;2022-12-20T10:37:35;10.57;;;2.60;;
44578;SDS011;37422;51.402;0.016;2022-12-20T10:40:30;12.98;;;1.98;;
44578;SDS011;37422;51.402;0.016;2022-12-20T10:43:23;13.18;;;2.38;;
44578;SDS011;37422;51.402;0.016;2022-12-20T10:45:59;13.68;;;2.63;;
44578;SDS011;37422;51.402;0.016;2022-12-20T10:48:31;9.25;;;1.55;;
44578;SDS011;37422;51.402;0.016;2022-12-20T10:51:15;9.73;;;1.70;;
44578;SDS011;37422;51.402;0.016;2022-12-20T10:57:49;11.13;;;2.65;;
44578;SDS011;37422;51.402;0.016;2022-12-20T11:08:18;10.77;;;1.75;;
44578;SDS011;37422;51.402;0.016;2022-12-20T11:12:15;14.93;;;1.92;;
44578;SDS011;37422;51.402;0.016;2022-12-20T11:14:49;14.20;;;2.17;;
44578;SDS011;37422;51.402;0.016;2022-12-20T11:18:07;11.85;;;1.80;;
44578;SDS011;37422;51.402;0.016;2022-12-20T11:23:52;17.73;;;2.70;;
44578;SDS011;37422;51.402;0.016;2022-12-20T11:26:50;12.63;;;2.20;;
44578;SDS011;37422;51.402;0.016;2022-12-20T11:32:58;15.25;;;2.97;;
44578;SDS011;37422;51.402;0.016;2022-12-20T11:35:54;13.90;;;2.00;;
44578;SDS011;37422;51.402;0.016;2022-12-20T11:39:01;18.92;;;3.65;;
44578;SDS011;37422;51.402;0.016;2022-12-20T11:42:04;12.48;;;3.00;;
44578;SDS011;37422;51.402;0.016;2022-12-20T11:47:46;8.65;;;2.50;;
44578;SDS011;37422;51.402;0.016;2022-12-20T11:51:16;12.65;;;2.30;;
44578;SDS011;37422;51.402;0.016;2022-12-20T11:57:17;15.02;;;2.92;;
44578;SDS011;37422;51.402;0.016;2022-12-20T11:59:58;14.95;;;2.63;;
44578;SDS011;37422;51.402;0.016;2022-12-20T12:02:47;15.82;;;3.15;;
44578;SDS011;37422;51.402;0.016;2022-12-20T12:06:21;14.23;;;2.60;;
44578;SDS011;37422;51.402;0.016;2022-12-20T12:12:09;16.85;;;3.72;;
44578;SDS011;37422;51.402;0.016;2022-12-20T12:17:50;10.95;;;2.50;;
44578;SDS011;37422;51.402;0.016;2022-12-20T12:26:32;19.38;;;3.15;;
44578;SDS011;37422;51.402;0.016;2022-12-20T12:29:04;13.32;;;3.50;;
44578;SDS011;37422;51.402;0.016;2022-12-20T12:31:40;16.73;;;3.17;;
44578;SDS011;37422;51.402;0.016;2022-12-20T12:49:46;22.45;;;3.85;;
44578;SDS011;37422;51.402;0.016;2022-12-20T12:55:02;14.20;;;2.95;;
44578;SDS011;37422;51.402;0.016;2022-12-20T12:57:55;22.55;;;3.05;;
44578;SDS011;37422;51.402;0.016;2022-12-20T13:00:46;21.73;;;3.55;;
44578;SDS011;37422;51.402;0.016;2022-12-20T13:03:40;16.70;;;3.83;;
44578;SDS011;37422;51.402;0.016;2022-12-20T13:09:37;19.08;;;3.00;;
44578;SDS011;37422;51.402;0.016;2022-12-20T13:12:00;19.15;;;4.47;;
44578;SDS011;37422;51.402;0.016;2022-12-20T13:17:49;20.50;;;4.00;;
44578;SDS011;37422;51.402;0.016;2022-12-20T13:20:41;18.67;;;4.25;;
44578;SDS011;37422;51.402;0.016;2022-12-20T13:23:14;19.53;;;4.13;;
44578;SDS011;37422;51.402;0.016;2022-12-20T13:33:38;25.38;;;5.25;;
44578;SDS011;37422;51.402;0.016;2022-12-20T13:44:26;23.60;;;4.75;;
44578;SDS011;37422;51.402;0.016;2022-12-20T13:47:19;24.88;;;4.22;;
44578;SDS011;37422;51.402;0.016;2022-12-20T13:50:00;25.70;;;4.93;;
44578;SDS011;37422;51.402;0.016;2022-12-20T13:52:47;17.33;;;3.22;;
44578;SDS011;37422;51.402;0.016;2022-12-20T13:55:31;18.30;;;3.85;;
44578;SDS011;37422;51.402;0.016;2022-12-20T13:58:29;22.65;;;3.53;;
44578;SDS011;37422;51.402;0.016;2022-12-20T14:01:02;16.80;;;3.95;;
44578;SDS011;37422;51.402;0.016;2022-12-20T14:03:39;25.58;;;3.72;;
44578;SDS011;37422;51.402;0.016;2022-12-20T14:06:09;13.63;;;3.13;;
44578;SDS011;37422;51.402;0.016;2022-12-20T14:08:49;17.50;;;3.75;;
44578;SDS011;37422;51.402;0.016;2022-12-20T14:11:22;20.73;;;4.10;;
44578;SDS011;37422;51.402;0.016;2022-12-20T14:14:01;27.63;;;4.40;;
44578;SDS011;37422;51.402;0.016;2022-12-20T14:16:32;30.02;;;6.05;;
44578;SDS011;37422;51.402;0.016;2022-12-20T14:21:33;26.02;;;4.80;;
44578;SDS011;37422;51.402;0.016;2022-12-20T14:24:03;23.30;;;5.70;;
44578;SDS011;37422;51.402;0.016;2022-12-20T14:26:35;22.90;;;4.75;;
44578;SDS011;37422;51.402;0.016;2022-12-20T14:29:10;27.88;;;4.28;;
44578;SDS011;37422;51.402;0.016;2022-12-20T14:31:42;25.38;;;5.03;;
44578;SDS011;37422;51.402;0.016;2022-12-20T14:34:20;13.65;;;3.80;;
44578;SDS011;37422;51.402;0.016;2022-12-20T14:40:36;23.90;;;6.13;;
44578;SDS011;37422;51.402;0.016;2022-12-20T14:42:36;22.05;;;4.50;;
44578;SDS011;37422;51.402;0.016;2022-12-20T14:45:16;26.77;;;5.75;;
44578;SDS011;37422;51.402;0.016;2022-12-20T14:47:48;23.63;;;4.57;;
44578;SDS011;37422;51.402;0.016;2022-12-20T14:50:27;23.33;;;3.90;;
44578;SDS011;37422;51.402;0.016;2022-12-20T15:20:57;25.33;;;5.05;;
44578;SDS011;37422;51.402;0.016;2022-12-20T15:24:43;28.57;;;4.73;;
44578;SDS011;37422;51.402;0.016;2022-12-20T15:27:50;21.52;;;4.50;;
44578;SDS011;37422;51.402;0.016;2022-12-20T15:31:17;32.15;;;4.97;;
44578;SDS011;37422;51.402;0.016;2022-12-20T15:53:54;31.63;;;4.65;;
44578;SDS011;37422;51.402;0.016;2022-12-20T15:58:11;21.40;;;4.25;;
44578;SDS011;37422;51.402;0.016;2022-12-20T16:10:21;25.38;;;4.40;;
44578;SDS011;37422;51.402;0.016;2022-12-20T16:17:50;27.08;;;5.03;;
44578;SDS011;37422;51.402;0.016;2022-12-20T16:26:25;21.30;;;4.53;;
44578;SDS011;37422;51.402;0.016;2022-12-20T16:30:02;28.25;;;5.65;;
44578;SDS011;37422;51.402;0.016;2022-12-20T16:38:22;20.05;;;4.45;;
44578;SDS011;37422;51.402;0.016;2022-12-20T16:42:02;23.83;;;5.90;;
44578;SDS011;37422;51.402;0.016;2022-12-20T16:54:22;27.48;;;6.70;;
44578;SDS011;37422;51.402;0.016;2022-12-20T16:58:36;26.63;;;6.63;;
44578;SDS011;37422;51.402;0.016;2022-12-20T17:04:59;34.95;;;8.32;;
44578;SDS011;37422;51.402;0.016;2022-12-20T17:07:30;31.08;;;7.57;;
44578;SDS011;37422;51.402;0.016;2022-12-20T17:10:05;33.65;;;8.60;;
44578;SDS011;37422;51.402;0.016;2022-12-20T17:12:42;28.88;;;6.38;;
44578;SDS011;37422;51.402;0.016;2022-12-20T17:15:19;26.38;;;7.25;;
44578;SDS011;37422;51.402;0.016;2022-12-20T17:17:52;24.02;;;5.72;;
44578;SDS011;37422;51.402;0.016;2022-12-20T17:20:21;33.83;;;7.85;;
44578;SDS011;37422;51.402;0.016;2022-12-20T17:22:52;22.93;;;5.97;;
44578;SDS011;37422;51.402;0.016;2022-12-20T17:25:26;34.28;;;8.57;;
44578;SDS011;37422;51.402;0.016;2022-12-20T17:27:59;34.70;;;5.80;;
44578;SDS011;37422;51.402;0.016;2022-12-20T17:30:27;27.42;;;6.55;;
44578;SDS011;37422;51.402;0.016;2022-12-20T17:32:55;35.40;;;7.45;;
44578;SDS011;37422;51.402;0.016;2022-12-20T17:35:24;24.60;;;5.57;;
44578;SDS011;37422;51.402;0.016;2022-12-20T17:37:54;23.88;;;6.22;;
44578;SDS011;37422;51.402;0.016;2022-12-20T17:40:28;40.22;;;10.55;;
44578;SDS011;37422;51.402;0.016;2022-12-20T17:42:56;35.30;;;8.00;;
44578;SDS011;37422;51.402;0.016;2022-12-20T17:45:25;32.80;;;8.15;;
44578;SDS011;37422;51.402;0.016;2022-12-20T17:47:56;28.67;;;7.78;;
44578;SDS011;37422;51.402;0.016;2022-12-20T17:50:25;33.25;;;7.32;;
44578;SDS011;37422;51.402;0.016;2022-12-20T17:52:53;30.08;;;8.38;;
44578;SDS011;37422;51.402;0.016;2022-12-20T17:57:54;33.00;;;8.27;;
44578;SDS011;37422;51.402;0.016;2022-12-20T18:03:05;24.38;;;7.28;;
44578;SDS011;37422;51.402;0.016;2022-12-20T18:05:33;29.73;;;8.88;;
44578;SDS011;37422;51.402;0.016;2022-12-20T18:08:01;24.38;;;7.35;;
44578;SDS011;37422;51.402;0.016;2022-12-20T18:10:29;23.58;;;7.72;;
44578;SDS011;37422;51.402;0.016;2022-12-20T18:13:00;29.83;;;8.65;;
44578;SDS011;37422;51.402;0.016;2022-12-20T18:15:32;32.83;;;8.60;;
44578;SDS011;37422;51.402;0.016;2022-12-20T18:18:00;26.40;;;8.35;;
44578;SDS011;37422;51.402;0.016;2022-12-20T18:20:31;31.70;;;9.48;;
44578;SDS011;37422;51.402;0.016;2022-12-20T18:22:59;31.80;;;8.05;;
44578;SDS011;37422;51.402;0.016;2022-12-20T18:27:58;33.72;;;8.70;;
44578;SDS011;37422;51.402;0.016;2022-12-20T18:30:25;34.58;;;8.13;;
44578;SDS011;37422;51.402;0.016;2022-12-20T18:32:53;34.95;;;8.43;;
44578;SDS011;37422;51.402;0.016;2022-12-20T18:35:21;29.50;;;8.45;;
44578;SDS011;37422;51.402;0.016;2022-12-20T18:37:51;41.33;;;10.77;;
44578;SDS011;37422;51.402;0.016;2022-12-20T18:40:18;36.72;;;11.25;;
44578;SDS011;37422;51.402;0.016;2022-12-20T18:42:49;30.77;;;8.57;;
44578;SDS011;37422;51.402;0.016;2022-12-20T18:45:17;29.05;;;7.78;;
44578;SDS011;37422;51.402;0.016;2022-12-20T18:47:51;32.95;;;8.10;;
44578;SDS011;37422;51.402;0.016;2022-12-20T18:50:30;29.50;;;9.07;;
44578;SDS011;37422;51.402;0.016;2022-12-20T18:53:01;26.65;;;7.30;;
44578;SDS011;37422;51.402;0.016;2022-12-20T19:02:53;34.22;;;10.00;;
44578;SDS011;37422;51.402;0.016;2022-12-20T19:05:40;27.10;;;10.07;;
44578;SDS011;37422;51.402;0.016;2022-12-20T19:11:27;30.98;;;8.20;;
44578;SDS011;37422;51.402;0.016;2022-12-20T19:14:06;31.83;;;9.02;;
44578;SDS011;37422;51.402;0.016;2022-12-20T19:16:41;28.70;;;9.02;;
44578;SDS011;37422;51.402;0.016;2022-12-20T19:19:18;33.85;;;9.30;;
44578;SDS011;37422;51.402;0.016;2022-12-20T19:22:06;32.20;;;10.07;;
44578;SDS011;37422;51.402;0.016;2022-12-20T19:24:43;27.10;;;9.32;;
44578;SDS011;37422;51.402;0.016;2022-12-20T19:27:14;37.83;;;8.23;;
44578;SDS011;37422;51.402;0.016;2022-12-20T19:29:46;36.83;;;8.23;;
44578;SDS011;37422;51.402;0.016;2022-12-20T19:32:16;31.83;;;7.70;;
44578;SDS011;37422;51.402;0.016;2022-12-20T19:37:17;36.85;;;7.53;;
44578;SDS011;37422;51.402;0.016;2022-12-20T19:56:48;43.30;;;9.43;;
44578;SDS011;37422;51.402;0.016;2022-12-20T19:59:26;39.65;;;7.88;;
44578;SDS011;37422;51.402;0.016;2022-12-20T20:02:00;44.55;;;8.75;;
44578;SDS011;37422;51.402;0.016;2022-12-20T20:04:29;40.15;;;10.27;;
44578;SDS011;37422;51.402;0.016;2022-12-20T20:07:01;32.05;;;7.80;;
44578;SDS011;37422;51.402;0.016;2022-12-20T20:09:49;36.05;;;9.20;;
44578;SDS011;37422;51.402;0.016;2022-12-20T20:12:20;35.17;;;8.60;;
44578;SDS011;37422;51.402;0.016;2022-12-20T20:19:15;36.55;;;8.27;;
44578;SDS011;37422;51.402;0.016;2022-12-20T20:21:52;38.25;;;8.20;;
44578;SDS011;37422;51.402;0.016;2022-12-20T20:24:22;29.93;;;9.23;;
44578;SDS011;37422;51.402;0.016;2022-12-20T20:26:54;36.17;;;8.23;;
44578;SDS011;37422;51.402;0.016;2022-12-20T20:29:22;27.38;;;6.82;;
44578;SDS011;37422;51.402;0.016;2022-12-20T20:31:53;33.47;;;7.88;;